Time;durP1;ratioP1;P1;durP2;ratioP2;P2;SDS_P1;SDS_P2;PMS_P1;PMS_P2;Temp;Humidity;BMP_temperature;BMP_pressure;BME280_temperature;BME280_humidity;BME280_pressure;Samples;Min_cycle;Max_cycle;Signal;HPM_P1;HPM_P2
2021/12/17 00:00:58;;;;;;;6.13;4.70;;;;;;;;;;5082909;28;20027;-35
2021/12/17 00:03:34;;;;;;;5.57;4.65;;;;;;;;;;5082837;28;20044;-29
2021/12/17 00:06:47;;;;;;;5.18;4.45;;;;;;;;;;5082960;28;20935;-30
2021/12/17 00:08:53;;;;;;;4.97;4.35;;;;;;;;;;5078425;28;20123;-33
2021/12/17 00:11:19;;;;;;;5.93;4.65;;;;;;;;;;5083292;28;20487;-29
2021/12/17 00:13:46;;;;;;;5.07;4.35;;;;;;;;;;5082912;28;20650;-31
2021/12/17 00:16:19;;;;;;;5.55;4.53;;;;;;;;;;5083009;28;20573;-31
2021/12/17 00:48:52;;;;;;;4.82;3.90;;;;;;;;;;5082394;28;20115;-32
2021/12/17 00:53:59;;;;;;;5.45;3.90;;;;;;;;;;5081906;28;20413;-31
2021/12/17 00:56:25;;;;;;;4.10;3.67;;;;;;;;;;5081257;28;20697;-31
2021/12/17 00:58:51;;;;;;;4.68;3.75;;;;;;;;;;5081969;28;20028;-32
2021/12/17 01:01:17;;;;;;;5.07;4.10;;;;;;;;;;5082924;28;20028;-32
2021/12/17 01:03:42;;;;;;;4.55;4.00;;;;;;;;;;5082649;28;20520;-33
2021/12/17 01:06:08;;;;;;;3.95;3.35;;;;;;;;;;5082981;28;20035;-31
2021/12/17 01:08:33;;;;;;;4.88;3.55;;;;;;;;;;5064175;28;20028;-33
2021/12/17 01:10:59;;;;;;;4.28;3.67;;;;;;;;;;5081984;28;20028;-30
2021/12/17 01:13:25;;;;;;;4.35;3.10;;;;;;;;;;5082531;28;20669;-32
2021/12/17 01:15:51;;;;;;;4.80;3.90;;;;;;;;;;5064667;28;20036;-34
2021/12/17 01:18:19;;;;;;;4.70;3.90;;;;;;;;;;5083281;28;20028;-33
2021/12/17 01:37:43;;;;;;;3.78;3.15;;;;;;;;;;5085690;28;20026;-32
2021/12/17 01:42:27;;;;;;;3.63;3.03;;;;;;;;;;5085458;28;20093;-31
2021/12/17 01:44:53;;;;;;;3.83;3.17;;;;;;;;;;5085154;28;20468;-31
2021/12/17 01:47:18;;;;;;;4.72;3.47;;;;;;;;;;5085715;28;20028;-29
2021/12/17 02:00:25;;;;;;;3.92;3.33;;;;;;;;;;5085917;28;20043;-28
2021/12/17 02:02:55;;;;;;;3.92;3.28;;;;;;;;;;5085728;28;20032;-35
2021/12/17 02:05:20;;;;;;;4.30;3.65;;;;;;;;;;5085692;28;20514;-32
2021/12/17 02:07:49;;;;;;;3.40;2.88;;;;;;;;;;5085436;28;20035;-33
2021/12/17 02:28:56;;;;;;;4.18;3.30;;;;;;;;;;5084626;28;20043;-31
2021/12/17 02:31:27;;;;;;;4.43;3.25;;;;;;;;;;5084639;28;20047;-31
2021/12/17 02:33:59;;;;;;;3.83;3.20;;;;;;;;;;5067466;28;20434;-28
2021/12/17 02:36:29;;;;;;;3.78;3.10;;;;;;;;;;5084489;28;20027;-33
2021/12/17 02:39:04;;;;;;;4.25;3.30;;;;;;;;;;5084565;28;20040;-30
2021/12/17 02:46:58;;;;;;;3.72;3.08;;;;;;;;;;5083899;28;20716;-31
2021/12/17 02:49:24;;;;;;;3.63;3.30;;;;;;;;;;5084442;28;20039;-29
2021/12/17 02:51:49;;;;;;;3.95;3.30;;;;;;;;;;5066079;28;20118;-32
2021/12/17 02:54:15;;;;;;;3.83;3.25;;;;;;;;;;5049729;28;20028;-29
2021/12/17 02:56:40;;;;;;;3.80;3.40;;;;;;;;;;5065920;28;20032;-30
2021/12/17 02:59:10;;;;;;;4.00;3.20;;;;;;;;;;5084190;28;20032;-33
2021/12/17 03:01:35;;;;;;;3.55;3.20;;;;;;;;;;5066468;28;20032;-29
2021/12/17 03:04:01;;;;;;;4.05;3.25;;;;;;;;;;5084630;28;20032;-29
2021/12/17 03:06:26;;;;;;;4.00;3.60;;;;;;;;;;5066481;28;20540;-28
2021/12/17 03:08:52;;;;;;;3.70;3.17;;;;;;;;;;5065701;28;20070;-33
2021/12/17 03:11:17;;;;;;;4.97;3.45;;;;;;;;;;5083854;28;20045;-31
2021/12/17 03:13:45;;;;;;;4.32;3.50;;;;;;;;;;5084309;28;20016;-32
2021/12/17 03:24:23;;;;;;;4.53;3.75;;;;;;;;;;5001410;28;20040;-29
2021/12/17 03:26:49;;;;;;;4.43;3.60;;;;;;;;;;5066376;28;20040;-29
2021/12/17 03:29:15;;;;;;;4.22;3.50;;;;;;;;;;5083234;28;20044;-30
2021/12/17 03:31:40;;;;;;;4.38;3.38;;;;;;;;;;5083823;28;20024;-29
2021/12/17 03:36:42;;;;;;;6.43;3.78;;;;;;;;;;5084029;28;20485;-34
2021/12/17 03:39:07;;;;;;;4.05;3.50;;;;;;;;;;5083980;28;20025;-30
2021/12/17 03:41:37;;;;;;;4.72;4.13;;;;;;;;;;5083461;28;20036;-31
2021/12/17 03:44:03;;;;;;;3.92;3.15;;;;;;;;;;5083034;28;20032;-29
2021/12/17 03:46:28;;;;;;;5.00;3.72;;;;;;;;;;5064805;28;20020;-29
2021/12/17 03:48:54;;;;;;;4.30;3.60;;;;;;;;;;5083410;28;20024;-32
2021/12/17 03:51:19;;;;;;;4.30;3.35;;;;;;;;;;5083789;28;20478;-33
2021/12/17 03:53:48;;;;;;;5.05;4.03;;;;;;;;;;5083582;28;20520;-30
2021/12/17 03:56:13;;;;;;;4.15;3.25;;;;;;;;;;5082793;28;20055;-34
2021/12/17 03:58:39;;;;;;;4.22;3.53;;;;;;;;;;5082573;28;20938;-29
2021/12/17 04:01:04;;;;;;;3.97;3.15;;;;;;;;;;5082631;28;20421;-33
2021/12/17 04:03:30;;;;;;;3.97;3.28;;;;;;;;;;5083416;28;20024;-34
2021/12/17 04:05:56;;;;;;;4.10;3.22;;;;;;;;;;5082793;28;20105;-30
2021/12/17 04:08:21;;;;;;;4.53;3.30;;;;;;;;;;5083485;28;20024;-28
2021/12/17 04:10:50;;;;;;;4.03;3.33;;;;;;;;;;5083381;28;20035;-28
2021/12/17 04:15:54;;;;;;;4.03;3.17;;;;;;;;;;5083197;28;20032;-33
2021/12/17 04:18:19;;;;;;;3.90;3.20;;;;;;;;;;5083214;28;20100;-32
2021/12/17 04:20:45;;;;;;;4.18;3.05;;;;;;;;;;5083515;28;20785;-30
2021/12/17 04:23:10;;;;;;;5.07;3.40;;;;;;;;;;5083520;28;20024;-27
2021/12/17 04:25:36;;;;;;;5.07;2.80;;;;;;;;;;5082489;28;20031;-29
2021/12/17 04:28:01;;;;;;;4.05;2.90;;;;;;;;;;5082559;28;20024;-31
2021/12/17 04:30:28;;;;;;;4.10;3.15;;;;;;;;;;5064707;28;20052;-28
2021/12/17 04:32:54;;;;;;;3.25;2.95;;;;;;;;;;5082871;28;20568;-34
2021/12/17 04:35:20;;;;;;;2.92;2.63;;;;;;;;;;5083258;28;20020;-28
2021/12/17 04:37:45;;;;;;;3.67;2.83;;;;;;;;;;5082515;28;20452;-29
2021/12/17 04:40:11;;;;;;;3.42;2.90;;;;;;;;;;5082142;28;20121;-29
2021/12/17 04:45:22;;;;;;;4.22;3.35;;;;;;;;;;5082725;28;20558;-29
2021/12/17 04:58:44;;;;;;;3.88;2.85;;;;;;;;;;5083621;28;20043;-31
2021/12/17 05:01:13;;;;;;;3.63;2.90;;;;;;;;;;5083069;28;20058;-31
2021/12/17 05:03:39;;;;;;;3.30;2.70;;;;;;;;;;5074571;28;20035;-34
2021/12/17 05:06:05;;;;;;;3.10;2.80;;;;;;;;;;5074206;28;20059;-29
2021/12/17 05:08:30;;;;;;;3.97;3.08;;;;;;;;;;5076677;28;20024;-32
2021/12/17 05:21:18;;;;;;;5.97;3.10;;;;;;;;;;5077505;28;20478;-31
2021/12/17 05:23:44;;;;;;;6.40;3.60;;;;;;;;;;5077841;28;20028;-32
2021/12/17 05:26:12;;;;;;;4.82;3.28;;;;;;;;;;5082850;28;20483;-32
2021/12/17 05:28:38;;;;;;;6.80;3.50;;;;;;;;;;5084495;28;20028;-32
2021/12/17 05:31:03;;;;;;;7.97;3.90;;;;;;;;;;5069733;28;20036;-28
2021/12/17 05:33:29;;;;;;;5.72;3.67;;;;;;;;;;5081701;28;20028;-30
2021/12/17 05:35:54;;;;;;;7.32;3.75;;;;;;;;;;5085828;28;20020;-31
2021/12/17 05:38:21;;;;;;;10.15;4.03;;;;;;;;;;5068063;28;20073;-28
2021/12/17 05:40:46;;;;;;;10.10;4.72;;;;;;;;;;5073661;28;20065;-30
2021/12/17 05:43:14;;;;;;;15.10;5.28;;;;;;;;;;5082502;28;20435;-30
2021/12/17 05:48:23;;;;;;;13.27;4.75;;;;;;;;;;5081238;28;20111;-29
2021/12/17 05:50:50;;;;;;;8.98;4.63;;;;;;;;;;5086134;28;20111;-31
2021/12/17 05:53:16;;;;;;;8.55;4.88;;;;;;;;;;5085798;28;20024;-30
2021/12/17 05:55:42;;;;;;;10.40;5.10;;;;;;;;;;5075001;28;20086;-32
2021/12/17 05:58:08;;;;;;;10.77;5.18;;;;;;;;;;5064251;28;20035;-29
2021/12/17 06:00:34;;;;;;;12.70;5.28;;;;;;;;;;5063935;28;20046;-29
2021/12/17 06:02:59;;;;;;;10.57;4.85;;;;;;;;;;5063621;28;20024;-30
2021/12/17 06:05:25;;;;;;;9.90;4.38;;;;;;;;;;5064622;28;20032;-30
2021/12/17 06:07:51;;;;;;;11.90;4.85;;;;;;;;;;5084109;28;20032;-31
2021/12/17 06:10:17;;;;;;;9.00;4.60;;;;;;;;;;5083554;28;20055;-30
2021/12/17 06:12:42;;;;;;;16.48;5.10;;;;;;;;;;5083042;28;20028;-33
2021/12/17 06:15:12;;;;;;;9.35;4.05;;;;;;;;;;5085545;28;20079;-28
2021/12/17 06:17:38;;;;;;;8.13;3.75;;;;;;;;;;5082773;28;20031;-31
2021/12/17 06:20:04;;;;;;;11.32;4.45;;;;;;;;;;5085042;28;20032;-27
2021/12/17 06:22:30;;;;;;;16.40;4.63;;;;;;;;;;5083589;28;20769;-28
2021/12/17 06:24:55;;;;;;;9.88;4.40;;;;;;;;;;5084619;28;20020;-33
2021/12/17 06:27:23;;;;;;;6.88;4.60;;;;;;;;;;5084498;28;20471;-35
2021/12/17 06:29:48;;;;;;;7.15;4.30;;;;;;;;;;5084860;28;20068;-34
2021/12/17 06:32:14;;;;;;;8.65;4.40;;;;;;;;;;5070818;28;20641;-28
2021/12/17 06:34:39;;;;;;;7.40;4.47;;;;;;;;;;5075045;28;20406;-27
2021/12/17 06:37:05;;;;;;;5.93;4.22;;;;;;;;;;5084065;28;20170;-33
2021/12/17 06:39:31;;;;;;;7.03;3.83;;;;;;;;;;5067253;28;20214;-27
2021/12/17 06:41:56;;;;;;;7.63;4.22;;;;;;;;;;5064134;28;20018;-31
2021/12/17 06:44:25;;;;;;;8.07;4.05;;;;;;;;;;5064200;28;20141;-32
2021/12/17 07:00:50;;;;;;;6.80;4.18;;;;;;;;;;5073560;28;20038;-34
2021/12/17 07:05:57;;;;;;;7.82;3.72;;;;;;;;;;5069102;28;20046;-31
2021/12/17 07:17:13;;;;;;;4.88;3.40;;;;;;;;;;4981124;28;20042;-35
2021/12/17 07:28:05;;;;;;;4.15;3.03;;;;;;;;;;5079181;28;20100;-29
2021/12/17 07:33:09;;;;;;;4.78;3.03;;;;;;;;;;5071306;28;20079;-33
2021/12/17 07:35:54;;;;;;;5.82;3.00;;;;;;;;;;5088489;28;20058;-32
2021/12/17 07:38:38;;;;;;;7.20;3.20;;;;;;;;;;5071861;28;20113;-32
2021/12/17 07:41:03;;;;;;;;;;;;;;;;;;5078716;28;20688;-29
2021/12/17 07:46:00;;;;;;;4.45;3.35;;;;;;;;;;5091659;28;20032;-28
2021/12/17 07:48:26;;;;;;;6.18;2.75;;;;;;;;;;5082725;28;20471;-30
2021/12/17 07:50:54;;;;;;;4.85;3.33;;;;;;;;;;5083245;28;20035;-29
2021/12/17 07:53:19;;;;;;;5.32;3.13;;;;;;;;;;5081998;28;20528;-29
2021/12/17 07:55:45;;;;;;;4.03;3.17;;;;;;;;;;5082760;28;20047;-30
2021/12/17 07:58:11;;;;;;;4.15;3.00;;;;;;;;;;5082519;28;20110;-28
2021/12/17 08:00:36;;;;;;;7.70;3.22;;;;;;;;;;5083261;28;20032;-32
2021/12/17 08:03:02;;;;;;;4.45;2.80;;;;;;;;;;5082103;28;20028;-29
2021/12/17 08:05:27;;;;;;;4.22;2.80;;;;;;;;;;5082976;28;20034;-28
2021/12/17 08:07:53;;;;;;;3.58;2.53;;;;;;;;;;5081394;28;20095;-27
2021/12/17 08:10:18;;;;;;;3.22;2.58;;;;;;;;;;5062689;28;20786;-30
2021/12/17 08:12:44;;;;;;;3.72;2.72;;;;;;;;;;5085909;28;20020;-27
2021/12/17 08:15:11;;;;;;;5.65;3.08;;;;;;;;;;5102787;28;20448;-30
2021/12/17 08:26:01;;;;;;;6.13;4.53;;;;;;;;;;5079844;28;20035;-28
2021/12/17 08:28:38;;;;;;;6.25;4.53;;;;;;;;;;5062455;28;20506;-30
2021/12/17 08:31:04;;;;;;;8.68;4.97;;;;;;;;;;5062234;28;20056;-31
2021/12/17 08:33:29;;;;;;;7.50;5.75;;;;;;;;;;5062523;28;20121;-30
2021/12/17 08:35:57;;;;;;;7.32;5.90;;;;;;;;;;5062918;28;20036;-32
2021/12/17 08:38:23;;;;;;;9.02;6.22;;;;;;;;;;5062797;28;20021;-33
2021/12/17 08:40:50;;;;;;;13.40;7.22;;;;;;;;;;5063037;28;20035;-30
2021/12/17 08:43:15;;;;;;;8.45;7.13;;;;;;;;;;5082419;28;20059;-33
2021/12/17 08:45:41;;;;;;;8.88;7.20;;;;;;;;;;5084709;28;20028;-29
2021/12/17 08:48:07;;;;;;;9.13;7.30;;;;;;;;;;5080672;28;20724;-28
2021/12/17 08:50:33;;;;;;;8.13;7.00;;;;;;;;;;5086497;28;20027;-31
2021/12/17 08:52:58;;;;;;;9.13;7.10;;;;;;;;;;5086197;28;20035;-32
2021/12/17 08:55:24;;;;;;;8.95;7.68;;;;;;;;;;5095394;28;20023;-34
2021/12/17 08:57:49;;;;;;;7.38;6.60;;;;;;;;;;5072217;28;20039;-34
2021/12/17 09:00:15;;;;;;;8.40;6.93;;;;;;;;;;5069620;28;20035;-32
2021/12/17 09:02:41;;;;;;;8.93;6.60;;;;;;;;;;5085131;28;20313;-32
2021/12/17 09:05:08;;;;;;;10.27;6.75;;;;;;;;;;5070814;28;20085;-29
2021/12/17 09:07:33;;;;;;;8.85;6.22;;;;;;;;;;5086467;28;20042;-29
2021/12/17 09:09:59;;;;;;;8.05;6.20;;;;;;;;;;5082274;28;20021;-33
2021/12/17 09:12:25;;;;;;;10.52;6.00;;;;;;;;;;5075208;28;20497;-30
2021/12/17 09:14:50;;;;;;;8.32;5.90;;;;;;;;;;5075786;28;20028;-31
2021/12/17 09:17:16;;;;;;;6.78;5.82;;;;;;;;;;5085497;28;20084;-30
2021/12/17 09:19:41;;;;;;;7.47;5.70;;;;;;;;;;5074890;28;20024;-33
2021/12/17 09:22:07;;;;;;;10.60;5.68;;;;;;;;;;5077424;28;20020;-34
2021/12/17 09:24:32;;;;;;;8.32;5.75;;;;;;;;;;5088297;28;20093;-29
2021/12/17 09:26:58;;;;;;;6.95;5.70;;;;;;;;;;5083280;28;20036;-30
2021/12/17 09:29:24;;;;;;;8.07;5.60;;;;;;;;;;5089776;28;20380;-30
2021/12/17 09:31:49;;;;;;;9.50;5.15;;;;;;;;;;5076565;28;20631;-29
2021/12/17 09:34:15;;;;;;;7.93;5.13;;;;;;;;;;5085313;28;20024;-30
2021/12/17 09:36:40;;;;;;;9.85;5.55;;;;;;;;;;5086959;28;20432;-30
2021/12/17 09:39:05;;;;;;;9.77;5.28;;;;;;;;;;5105491;28;20020;-28
2021/12/17 09:41:31;;;;;;;6.65;5.13;;;;;;;;;;5105868;28;20064;-29
2021/12/17 09:43:56;;;;;;;8.23;4.88;;;;;;;;;;5096224;28;20024;-29
2021/12/17 09:46:22;;;;;;;7.80;5.28;;;;;;;;;;5084763;28;20036;-31
2021/12/17 09:48:48;;;;;;;6.47;4.60;;;;;;;;;;5085337;28;20512;-31
2021/12/17 09:51:14;;;;;;;7.00;4.60;;;;;;;;;;5079921;28;20025;-31
2021/12/17 09:53:40;;;;;;;7.00;4.57;;;;;;;;;;5081208;28;20024;-29
2021/12/17 09:56:05;;;;;;;6.90;4.40;;;;;;;;;;5085206;28;20028;-30
2021/12/17 09:58:32;;;;;;;5.07;3.97;;;;;;;;;;5068099;28;20165;-32
2021/12/17 10:00:57;;;;;;;4.90;3.90;;;;;;;;;;5085672;28;20051;-32
2021/12/17 10:03:23;;;;;;;5.13;4.05;;;;;;;;;;5085427;28;20478;-32
2021/12/17 10:05:49;;;;;;;7.10;3.95;;;;;;;;;;5085022;28;20088;-28
2021/12/17 10:08:17;;;;;;;4.90;3.88;;;;;;;;;;5087422;28;20142;-30
2021/12/17 10:10:45;;;;;;;4.18;3.47;;;;;;;;;;5073235;28;20029;-29
2021/12/17 10:13:16;;;;;;;4.07;3.33;;;;;;;;;;5084226;28;20043;-28
2021/12/17 10:15:44;;;;;;;5.60;3.90;;;;;;;;;;5085027;28;20056;-33
2021/12/17 10:18:09;;;;;;;5.40;3.50;;;;;;;;;;5083645;28;20020;-30
2021/12/17 10:20:42;;;;;;;5.93;3.60;;;;;;;;;;5084022;28;20026;-28
2021/12/17 10:23:09;;;;;;;4.03;3.42;;;;;;;;;;5081678;28;20028;-28
2021/12/17 10:25:36;;;;;;;3.80;3.22;;;;;;;;;;5064447;28;20039;-31
2021/12/17 10:28:04;;;;;;;4.50;3.45;;;;;;;;;;5076668;28;20062;-28
2021/12/17 10:30:34;;;;;;;4.00;3.42;;;;;;;;;;5076308;28;20040;-29
2021/12/17 10:33:01;;;;;;;4.35;3.33;;;;;;;;;;5072629;28;20025;-33
2021/12/17 10:35:31;;;;;;;4.45;3.15;;;;;;;;;;5096690;28;20023;-29
2021/12/17 10:38:03;;;;;;;4.07;2.80;;;;;;;;;;5092254;28;20032;-28
2021/12/17 10:40:35;;;;;;;5.03;3.03;;;;;;;;;;5095275;28;20407;-28
2021/12/17 10:43:11;;;;;;;4.00;2.90;;;;;;;;;;5084249;28;20545;-28
2021/12/17 10:45:46;;;;;;;12.30;3.17;;;;;;;;;;5079990;28;20229;-31
2021/12/17 10:48:26;;;;;;;5.57;2.72;;;;;;;;;;5083667;28;20036;-27
2021/12/17 10:54:05;;;;;;;5.15;2.85;;;;;;;;;;5052026;28;20113;-33
2021/12/17 10:56:43;;;;;;;3.63;2.55;;;;;;;;;;5097895;28;20020;-33
2021/12/17 10:59:11;;;;;;;4.25;2.95;;;;;;;;;;5083932;28;20111;-31
2021/12/17 11:01:44;;;;;;;4.10;2.80;;;;;;;;;;5083981;28;20473;-28
2021/12/17 11:04:26;;;;;;;3.28;2.60;;;;;;;;;;5082895;28;20039;-33
2021/12/17 11:07:00;;;;;;;3.08;2.30;;;;;;;;;;5083626;28;20039;-32
2021/12/17 11:09:54;;;;;;;3.33;2.50;;;;;;;;;;5083558;28;20437;-28
2021/12/17 11:12:23;;;;;;;2.63;2.28;;;;;;;;;;5068677;28;20025;-32
2021/12/17 11:14:48;;;;;;;2.97;2.40;;;;;;;;;;5047260;28;20031;-30
2021/12/17 11:17:16;;;;;;;2.13;1.83;;;;;;;;;;5085847;28;20474;-27
2021/12/17 11:19:42;;;;;;;3.80;2.20;;;;;;;;;;5083333;28;20051;-31
2021/12/17 11:22:08;;;;;;;4.10;2.00;;;;;;;;;;5082333;28;20051;-29
2021/12/17 11:24:35;;;;;;;2.72;2.10;;;;;;;;;;5083119;28;20073;-28
2021/12/17 11:27:04;;;;;;;3.25;2.25;;;;;;;;;;5083339;28;20522;-29
2021/12/17 11:29:30;;;;;;;3.88;1.80;;;;;;;;;;5083834;28;20050;-30
2021/12/17 11:31:55;;;;;;;4.40;1.85;;;;;;;;;;5098699;28;20028;-29
2021/12/17 11:34:21;;;;;;;6.68;2.33;;;;;;;;;;5056812;28;20024;-33
2021/12/17 11:36:47;;;;;;;2.40;1.95;;;;;;;;;;5068382;28;20028;-29
2021/12/17 11:39:26;;;;;;;5.25;1.83;;;;;;;;;;5078016;28;20461;-29
2021/12/17 11:42:04;;;;;;;6.93;2.20;;;;;;;;;;5094202;28;20034;-30
2021/12/17 11:44:39;;;;;;;4.55;2.08;;;;;;;;;;5062111;28;20051;-34
2021/12/17 11:47:09;;;;;;;2.28;1.77;;;;;;;;;;5061967;28;20067;-29
2021/12/17 11:49:40;;;;;;;3.67;2.22;;;;;;;;;;5078264;28;20090;-29
2021/12/17 11:52:06;;;;;;;4.38;1.80;;;;;;;;;;5063140;28;20039;-32
2021/12/17 11:54:33;;;;;;;3.17;1.75;;;;;;;;;;5082141;28;20028;-33
2021/12/17 11:57:12;;;;;;;4.80;1.98;;;;;;;;;;5061401;28;20038;-30
2021/12/17 11:59:40;;;;;;;5.15;1.70;;;;;;;;;;5062418;28;20553;-30
2021/12/17 12:02:15;;;;;;;1.95;1.45;;;;;;;;;;5061290;28;20024;-28
2021/12/17 12:05:03;;;;;;;2.78;1.60;;;;;;;;;;5061806;28;20071;-32
2021/12/17 12:07:28;;;;;;;1.73;1.58;;;;;;;;;;5062606;28;20163;-29
2021/12/17 12:09:57;;;;;;;2.08;1.38;;;;;;;;;;5062959;28;20558;-31
2021/12/17 12:12:46;;;;;;;3.42;1.60;;;;;;;;;;5062583;28;20024;-33
2021/12/17 12:15:17;;;;;;;1.95;1.58;;;;;;;;;;5055848;28;20044;-31
2021/12/17 12:17:58;;;;;;;3.20;1.60;;;;;;;;;;5062535;28;20032;-31
2021/12/17 12:20:49;;;;;;;1.83;1.40;;;;;;;;;;5062056;28;20037;-31
2021/12/17 12:23:21;;;;;;;2.30;1.52;;;;;;;;;;5062271;28;20036;-28
2021/12/17 12:26:14;;;;;;;2.15;1.40;;;;;;;;;;5062013;28;20083;-31
2021/12/17 12:28:54;;;;;;;2.08;1.60;;;;;;;;;;5062371;28;20057;-33
2021/12/17 12:31:27;;;;;;;2.25;1.42;;;;;;;;;;5062663;28;20613;-32
2021/12/17 12:34:05;;;;;;;2.40;1.70;;;;;;;;;;5062174;28;20487;-29
2021/12/17 12:37:00;;;;;;;3.15;1.52;;;;;;;;;;5062285;28;20649;-29
2021/12/17 12:39:39;;;;;;;4.00;1.67;;;;;;;;;;5063411;28;20417;-32
2021/12/17 12:42:04;;;;;;;2.28;1.90;;;;;;;;;;5062785;28;20025;-30
2021/12/17 12:44:42;;;;;;;1.80;1.40;;;;;;;;;;5062884;28;20114;-30
2021/12/17 12:47:11;;;;;;;1.80;1.40;;;;;;;;;;5061974;28;20481;-32
2021/12/17 12:49:54;;;;;;;3.00;1.40;;;;;;;;;;5062736;28;20048;-30
2021/12/17 12:52:32;;;;;;;1.73;1.33;;;;;;;;;;5062831;28;20036;-33
2021/12/17 12:55:18;;;;;;;4.82;1.60;;;;;;;;;;5061905;28;20619;-31
2021/12/17 12:57:53;;;;;;;1.55;1.20;;;;;;;;;;5062324;28;20032;-30
2021/12/17 13:00:25;;;;;;;1.95;1.50;;;;;;;;;;5062858;28;20138;-32
2021/12/17 13:03:08;;;;;;;1.70;1.33;;;;;;;;;;5062283;28;20064;-31
2021/12/17 13:05:34;;;;;;;1.73;1.30;;;;;;;;;;5063103;28;20314;-32
2021/12/17 13:08:01;;;;;;;3.10;1.50;;;;;;;;;;5062749;28;20557;-32
2021/12/17 13:10:31;;;;;;;1.85;1.35;;;;;;;;;;5062151;28;20025;-28
2021/12/17 13:13:03;;;;;;;2.13;1.50;;;;;;;;;;5062037;28;20569;-29
2021/12/17 13:23:22;;;;;;;2.55;1.58;;;;;;;;;;5062474;28;20032;-29
2021/12/17 13:26:09;;;;;;;1.85;1.45;;;;;;;;;;5062652;28;20040;-32
2021/12/17 13:28:55;;;;;;;1.25;1.10;;;;;;;;;;5062131;28;20109;-32
2021/12/17 13:31:47;;;;;;;2.38;1.50;;;;;;;;;;5062363;28;20040;-29
2021/12/17 13:34:17;;;;;;;1.92;1.33;;;;;;;;;;5066161;28;20044;-29
2021/12/17 13:36:49;;;;;;;2.25;1.50;;;;;;;;;;5064851;28;20044;-32
2021/12/17 13:39:15;;;;;;;1.67;1.20;;;;;;;;;;5065400;28;20033;-31
2021/12/17 13:41:41;;;;;;;1.42;1.23;;;;;;;;;;5065154;28;20279;-28
2021/12/17 13:44:28;;;;;;;1.30;1.00;;;;;;;;;;5065910;28;20029;-36
2021/12/17 13:46:56;;;;;;;2.10;1.55;;;;;;;;;;5065425;28;20029;-33
2021/12/17 13:49:21;;;;;;;1.60;1.10;;;;;;;;;;5030965;28;20083;-31
2021/12/17 13:51:47;;;;;;;2.13;1.40;;;;;;;;;;5065446;28;20067;-29
2021/12/17 13:54:12;;;;;;;1.60;1.15;;;;;;;;;;5064556;28;20094;-30
2021/12/17 13:56:38;;;;;;;3.47;1.40;;;;;;;;;;5030845;28;20514;-31
2021/12/17 13:59:03;;;;;;;1.90;1.35;;;;;;;;;;5065145;28;20442;-28
2021/12/17 14:01:29;;;;;;;4.35;1.20;;;;;;;;;;5084090;28;20387;-31
2021/12/17 14:03:54;;;;;;;2.17;1.40;;;;;;;;;;5085595;28;20101;-35
2021/12/17 14:06:25;;;;;;;2.97;1.35;;;;;;;;;;5085146;28;20042;-30
2021/12/17 14:08:51;;;;;;;1.67;1.33;;;;;;;;;;5085337;28;20028;-30
2021/12/17 14:11:25;;;;;;;1.60;1.10;;;;;;;;;;5085583;28;20653;-31
2021/12/17 14:13:51;;;;;;;1.70;1.30;;;;;;;;;;5085100;28;20115;-28
2021/12/17 14:16:29;;;;;;;1.98;1.30;;;;;;;;;;5084741;28;20074;-30
2021/12/17 14:18:56;;;;;;;1.73;1.20;;;;;;;;;;5084761;28;20036;-30
2021/12/17 14:21:27;;;;;;;1.95;1.20;;;;;;;;;;5084810;28;20514;-28
2021/12/17 14:23:52;;;;;;;1.30;1.02;;;;;;;;;;5084745;28;20102;-31
2021/12/17 14:26:18;;;;;;;1.58;1.27;;;;;;;;;;5085696;28;20124;-35
2021/12/17 14:28:43;;;;;;;1.67;1.17;;;;;;;;;;5050201;28;20035;-30
2021/12/17 14:31:15;;;;;;;1.95;1.40;;;;;;;;;;5074483;28;20048;-29
2021/12/17 14:33:42;;;;;;;1.60;1.15;;;;;;;;;;5064359;28;20024;-31
2021/12/17 14:36:14;;;;;;;1.73;1.30;;;;;;;;;;5063998;28;20035;-33
2021/12/17 14:38:43;;;;;;;2.38;1.67;;;;;;;;;;5064833;28;20040;-29
2021/12/17 14:41:25;;;;;;;2.00;1.15;;;;;;;;;;5064168;28;20816;-32
2021/12/17 14:43:57;;;;;;;1.20;1.00;;;;;;;;;;5063663;28;20094;-30
2021/12/17 14:46:24;;;;;;;1.60;1.25;;;;;;;;;;5064074;28;20042;-29
2021/12/17 14:58:34;;;;;;;1.73;1.20;;;;;;;;;;5063693;28;20035;-30
2021/12/17 15:05:15;;;;;;;1.75;1.42;;;;;;;;;;5063845;28;20612;-33
2021/12/17 15:07:41;;;;;;;1.40;1.02;;;;;;;;;;5063906;28;20090;-29
2021/12/17 15:10:08;;;;;;;1.98;1.40;;;;;;;;;;5063244;28;20028;-29
2021/12/17 15:15:22;;;;;;;1.63;1.30;;;;;;;;;;5063138;28;20093;-30
2021/12/17 15:17:49;;;;;;;1.20;1.10;;;;;;;;;;5047403;28;20040;-28
2021/12/17 15:20:16;;;;;;;1.75;1.30;;;;;;;;;;5063475;28;20074;-28
2021/12/17 15:22:42;;;;;;;1.67;1.30;;;;;;;;;;5064069;28;20426;-28
2021/12/17 15:25:08;;;;;;;1.85;1.23;;;;;;;;;;5045064;28;20020;-29
2021/12/17 15:27:35;;;;;;;1.50;1.10;;;;;;;;;;5064232;28;20028;-30
2021/12/17 15:30:09;;;;;;;2.00;1.30;;;;;;;;;;5062864;28;20086;-33
2021/12/17 15:32:35;;;;;;;1.65;1.30;;;;;;;;;;5074659;28;20031;-30
2021/12/17 15:35:00;;;;;;;7.68;2.13;;;;;;;;;;5082990;28;20020;-32
2021/12/17 15:37:26;;;;;;;9.88;1.67;;;;;;;;;;5065059;28;20050;-30
2021/12/17 15:39:52;;;;;;;7.25;1.67;;;;;;;;;;5084962;28;20034;-32
2021/12/17 15:42:17;;;;;;;11.13;1.50;;;;;;;;;;5083008;28;20413;-34
2021/12/17 15:44:43;;;;;;;4.40;1.60;;;;;;;;;;5084046;28;20032;-33
2021/12/17 15:47:09;;;;;;;4.15;1.20;;;;;;;;;;5083601;28;20024;-34
2021/12/17 15:49:37;;;;;;;4.55;1.60;;;;;;;;;;5064560;28;20197;-31
2021/12/17 15:52:07;;;;;;;6.68;1.45;;;;;;;;;;5062802;28;20028;-29
2021/12/17 15:54:33;;;;;;;2.30;1.40;;;;;;;;;;5062803;28;20028;-33
2021/12/17 15:56:59;;;;;;;5.13;1.63;;;;;;;;;;5063321;28;20761;-29
2021/12/17 15:59:24;;;;;;;3.60;1.65;;;;;;;;;;5063429;28;20033;-29
2021/12/17 16:01:50;;;;;;;1.75;1.42;;;;;;;;;;5062787;28;20024;-33
2021/12/17 16:04:16;;;;;;;3.47;1.90;;;;;;;;;;5062496;28;20023;-32
2021/12/17 16:06:41;;;;;;;2.55;1.75;;;;;;;;;;5063055;28;20032;-30
2021/12/17 16:09:17;;;;;;;2.92;1.70;;;;;;;;;;5062723;28;20026;-29
2021/12/17 16:17:42;;;;;;;4.40;2.05;;;;;;;;;;5082791;28;20418;-27
2021/12/17 16:22:24;;;;;;;3.72;2.05;;;;;;;;;;5082291;28;20092;-32
2021/12/17 16:24:49;;;;;;;3.67;2.28;;;;;;;;;;5082724;28;20114;-30
2021/12/17 16:27:15;;;;;;;3.00;2.00;;;;;;;;;;5084863;28;20040;-33
2021/12/17 16:29:40;;;;;;;5.10;2.33;;;;;;;;;;5094424;28;20044;-33
2021/12/17 16:32:06;;;;;;;3.20;2.22;;;;;;;;;;5101452;28;20027;-32
2021/12/17 16:34:32;;;;;;;3.20;2.10;;;;;;;;;;5061873;28;20090;-34
2021/12/17 16:36:58;;;;;;;9.63;2.88;;;;;;;;;;5066128;28;20028;-30
2021/12/17 16:39:23;;;;;;;6.78;2.88;;;;;;;;;;5094915;28;20562;-28
2021/12/17 16:41:49;;;;;;;7.93;2.85;;;;;;;;;;5074651;28;20642;-29
2021/12/17 16:44:19;;;;;;;9.25;3.22;;;;;;;;;;5081149;28;20127;-29
2021/12/17 16:49:16;;;;;;;6.75;2.70;;;;;;;;;;5081676;28;20122;-30
2021/12/17 16:51:42;;;;;;;10.05;3.10;;;;;;;;;;5077955;28;20489;-29
2021/12/17 16:54:07;;;;;;;9.80;2.80;;;;;;;;;;5061626;28;20037;-30
2021/12/17 16:56:33;;;;;;;7.15;2.78;;;;;;;;;;5075167;28;20532;-30
2021/12/17 16:58:59;;;;;;;12.75;7.25;;;;;;;;;;5099752;28;20059;-28
2021/12/17 17:01:27;;;;;;;22.73;15.50;;;;;;;;;;5101526;28;20046;-32
2021/12/17 17:03:53;;;;;;;24.10;17.73;;;;;;;;;;5101220;28;20513;-30
2021/12/17 17:06:18;;;;;;;31.35;15.82;;;;;;;;;;5077846;28;20159;-32
2021/12/17 17:08:44;;;;;;;23.20;16.40;;;;;;;;;;5086066;28;20108;-32
2021/12/17 17:11:13;;;;;;;30.50;15.50;;;;;;;;;;5085621;28;20758;-31
2021/12/17 17:13:38;;;;;;;22.75;14.02;;;;;;;;;;5085547;28;20028;-32
2021/12/17 17:16:05;;;;;;;28.05;14.25;;;;;;;;;;5085728;28;20563;-30
2021/12/17 17:18:40;;;;;;;28.55;15.38;;;;;;;;;;5085893;28;20032;-30
2021/12/17 17:21:06;;;;;;;32.53;19.10;;;;;;;;;;5085287;28;20060;-33
2021/12/17 17:23:33;;;;;;;83.38;49.55;;;;;;;;;;5085850;28;20032;-30
2021/12/17 17:25:59;;;;;;;50.60;31.92;;;;;;;;;;5085622;28;20240;-33
2021/12/17 17:28:25;;;;;;;67.85;40.20;;;;;;;;;;5085755;28;20028;-30
2021/12/17 17:30:53;;;;;;;61.47;43.10;;;;;;;;;;5066451;28;20663;-28
2021/12/17 17:33:18;;;;;;;63.00;40.22;;;;;;;;;;5074760;28;20025;-30
2021/12/17 17:35:44;;;;;;;56.83;36.42;;;;;;;;;;5064948;28;20618;-30
2021/12/17 17:38:09;;;;;;;58.72;35.67;;;;;;;;;;5064801;28;20028;-31
2021/12/17 17:40:35;;;;;;;59.28;35.97;;;;;;;;;;5064898;28;20048;-28
2021/12/17 17:43:05;;;;;;;53.88;35.08;;;;;;;;;;5073193;28;20035;-30
2021/12/17 17:45:34;;;;;;;54.72;31.80;;;;;;;;;;5056149;28;20035;-30
2021/12/17 17:47:59;;;;;;;45.58;27.48;;;;;;;;;;5084261;28;20036;-33
2021/12/17 17:50:25;;;;;;;48.22;25.77;;;;;;;;;;5075436;28;20045;-32
2021/12/17 17:52:51;;;;;;;26.20;15.68;;;;;;;;;;5084049;28;20074;-31
2021/12/17 17:55:16;;;;;;;18.90;11.93;;;;;;;;;;5084709;28;20123;-29
2021/12/17 17:57:42;;;;;;;20.65;13.65;;;;;;;;;;5066282;28;20036;-31
2021/12/17 18:00:08;;;;;;;18.35;11.38;;;;;;;;;;5067255;28;20047;-29
2021/12/17 18:02:34;;;;;;;18.00;11.93;;;;;;;;;;5075105;28;20035;-28
2021/12/17 18:05:01;;;;;;;20.15;12.05;;;;;;;;;;5083560;28;20027;-30
2021/12/17 18:07:27;;;;;;;18.52;10.35;;;;;;;;;;5074640;28;20032;-32
2021/12/17 18:09:53;;;;;;;15.90;9.45;;;;;;;;;;5086372;28;20028;-30
2021/12/17 18:12:18;;;;;;;14.40;9.35;;;;;;;;;;5103509;28;20022;-29
2021/12/17 18:14:44;;;;;;;13.75;8.50;;;;;;;;;;5105142;28;20023;-29
2021/12/17 18:17:09;;;;;;;12.93;8.02;;;;;;;;;;5105218;28;20072;-31
2021/12/17 18:19:36;;;;;;;24.92;8.55;;;;;;;;;;5105557;28;20082;-30